Time;durP1;ratioP1;P1;durP2;ratioP2;P2;SDS_P1;SDS_P2;PMS_P1;PMS_P2;Temp;Humidity;BMP_temperature;BMP_pressure;BME280_temperature;BME280_humidity;BME280_pressure;Samples;Min_cycle;Max_cycle;Signal;HPM_P1;HPM_P2
2023/02/19 00:01:15;;;;;;;38.72;9.13;;;10.90;99.90;;;;;;5056483;28;20029;-92
2023/02/19 00:03:51;;;;;;;33.45;9.40;;;10.80;99.90;;;;;;5056384;28;20381;-92
2023/02/19 00:06:17;;;;;;;33.92;9.93;;;11.10;99.90;;;;;;5056143;28;20021;-93
2023/02/19 00:08:43;;;;;;;33.45;8.75;;;9.90;99.90;;;;;;5067645;28;20025;-93
2023/02/19 00:11:12;;;;;;;31.10;8.50;;;10.70;99.90;;;;;;5055584;28;20055;-92
2023/02/19 00:13:40;;;;;;;35.58;8.07;;;10.80;99.90;;;;;;5056426;28;20021;-92
2023/02/19 00:16:14;;;;;;;29.20;6.53;;;10.50;99.90;;;;;;5068376;28;20019;-91
2023/02/19 00:18:40;;;;;;;35.38;5.93;;;10.30;99.90;;;;;;5061231;28;20025;-93
2023/02/19 00:21:06;;;;;;;28.05;6.72;;;10.80;99.90;;;;;;5056715;28;20059;-90
2023/02/19 00:23:34;;;;;;;33.60;6.55;;;10.10;99.90;;;;;;5056090;28;20029;-92
2023/02/19 00:26:19;;;;;;;37.25;7.00;;;10.90;99.90;;;;;;5056399;28;20021;-92
2023/02/19 00:28:46;;;;;;;30.75;6.43;;;9.90;99.90;;;;;;5055794;28;20472;-92
2023/02/19 00:31:19;;;;;;;29.52;5.18;;;10.50;99.90;;;;;;5056193;28;20047;-92
2023/02/19 00:33:46;;;;;;;25.05;4.70;;;10.00;99.90;;;;;;5056206;28;20033;-91
2023/02/19 00:36:13;;;;;;;22.70;5.22;;;10.90;99.90;;;;;;5056034;28;20404;-93
2023/02/19 00:38:40;;;;;;;20.65;4.75;;;10.80;99.90;;;;;;5056113;28;20021;-92
2023/02/19 00:41:18;;;;;;;18.98;5.00;;;10.60;99.90;;;;;;5055878;28;20067;-92
2023/02/19 00:43:55;;;;;;;22.65;4.38;;;10.90;99.90;;;;;;5055104;28;20503;-93
2023/02/19 00:46:45;;;;;;;28.33;4.78;;;10.00;99.90;;;;;;5055737;28;20028;-94
2023/02/19 00:49:22;;;;;;;29.75;4.97;;;10.60;99.90;;;;;;5055597;28;20040;-94
2023/02/19 00:51:49;;;;;;;23.45;5.72;;;10.50;99.90;;;;;;5055265;28;20112;-94
2023/02/19 00:54:15;;;;;;;35.40;5.95;;;9.80;99.90;;;;;;5055805;28;20028;-92
2023/02/19 00:56:41;;;;;;;24.95;4.75;;;11.50;99.90;;;;;;5055289;28;20068;-94
2023/02/19 00:59:07;;;;;;;28.48;5.72;;;10.60;99.90;;;;;;5056019;28;20044;-92
2023/02/19 01:01:33;;;;;;;36.00;5.88;;;10.90;99.90;;;;;;5069606;28;20020;-92
2023/02/19 01:03:59;;;;;;;36.22;5.20;;;10.00;99.90;;;;;;5060624;28;20542;-93
2023/02/19 01:06:24;;;;;;;32.67;5.25;;;10.80;99.90;;;;;;5055659;28;20099;-94
2023/02/19 01:08:50;;;;;;;21.48;4.50;;;10.90;99.90;;;;;;5055183;28;20023;-94
2023/02/19 01:11:17;;;;;;;25.00;5.28;;;10.70;99.90;;;;;;5055363;28;20044;-92
2023/02/19 01:13:43;;;;;;;20.35;4.57;;;10.90;99.90;;;;;;5055432;28;20056;-93
2023/02/19 01:16:13;;;;;;;30.50;4.65;;;10.80;99.90;;;;;;5055267;28;20421;-92
2023/02/19 01:18:38;;;;;;;23.20;4.47;;;10.70;99.90;;;;;;5055238;28;20037;-94
2023/02/19 01:21:11;;;;;;;30.63;4.90;;;10.60;99.90;;;;;;5055121;28;20056;-93
2023/02/19 01:23:37;;;;;;;24.17;5.45;;;10.20;99.90;;;;;;5054681;28;20059;-93
2023/02/19 01:26:05;;;;;;;15.70;4.30;;;10.10;99.90;;;;;;5054734;28;20156;-91
2023/02/19 01:28:30;;;;;;;25.58;4.22;;;10.00;99.90;;;;;;5054860;28;20021;-92
2023/02/19 01:31:01;;;;;;;13.70;3.60;;;11.00;99.90;;;;;;5054272;28;20436;-91
2023/02/19 01:33:26;;;;;;;25.73;4.22;;;10.80;99.90;;;;;;5054787;28;20392;-92
2023/02/19 01:35:52;;;;;;;25.75;4.78;;;11.00;99.90;;;;;;5054528;28;20032;-93
2023/02/19 01:38:18;;;;;;;23.35;4.70;;;10.40;99.90;;;;;;5054541;28;20040;-91
2023/02/19 01:40:59;;;;;;;28.83;4.68;;;10.80;99.90;;;;;;5054202;28;20462;-91
2023/02/19 01:43:25;;;;;;;23.70;4.82;;;10.10;99.90;;;;;;5054646;28;20079;-93
2023/02/19 01:45:51;;;;;;;19.35;4.32;;;10.80;99.90;;;;;;5054384;28;20045;-91
2023/02/19 01:48:24;;;;;;;18.67;4.28;;;11.00;99.90;;;;;;5054668;28;20017;-93
2023/02/19 01:51:02;;;;;;;24.25;3.38;;;10.00;99.90;;;;;;5053869;28;20404;-92
2023/02/19 01:53:32;;;;;;;22.98;4.32;;;10.10;99.90;;;;;;5054542;28;20021;-92
2023/02/19 01:55:59;;;;;;;22.42;3.80;;;10.10;99.90;;;;;;5067980;28;20040;-92
2023/02/19 01:58:26;;;;;;;20.40;4.57;;;9.80;99.90;;;;;;5055502;28;20174;-92
2023/02/19 02:01:05;;;;;;;27.35;4.18;;;11.00;99.90;;;;;;5062529;28;20052;-91
2023/02/19 02:03:31;;;;;;;16.05;4.15;;;10.40;99.90;;;;;;5070774;28;20048;-94
2023/02/19 02:06:22;;;;;;;17.52;4.15;;;10.50;99.90;;;;;;5055434;28;20021;-93
2023/02/19 02:11:42;;;;;;;25.73;4.82;;;10.10;99.90;;;;;;5054571;28;20412;-92
2023/02/19 02:14:08;;;;;;;;;;;10.70;99.90;;;;;;5070701;28;20015;-93
2023/02/19 02:16:52;;;;;;;20.70;3.90;;;11.20;99.90;;;;;;5056915;28;19916;-93
2023/02/19 02:19:30;;;;;;;17.75;3.38;;;10.10;99.90;;;;;;5054470;28;20025;-92
2023/02/19 02:22:17;;;;;;;19.33;4.25;;;10.10;99.90;;;;;;5054270;28;20025;-93
2023/02/19 02:25:14;;;;;;;12.15;3.42;;;10.10;99.90;;;;;;5053893;28;20025;-92
2023/02/19 02:27:58;;;;;;;22.55;4.85;;;10.20;99.90;;;;;;5054184;28;20472;-93
2023/02/19 02:30:45;;;;;;;17.95;4.15;;;10.20;99.90;;;;;;5054390;28;20053;-93
2023/02/19 02:33:20;;;;;;;13.90;3.60;;;10.90;99.90;;;;;;5055299;28;20021;-93
2023/02/19 02:35:55;;;;;;;23.50;4.07;;;10.20;99.90;;;;;;5058536;28;20056;-93
2023/02/19 02:38:25;;;;;;;12.55;3.13;;;10.20;99.90;;;;;;5058411;28;20083;-94
2023/02/19 02:41:07;;;;;;;18.33;3.20;;;10.80;99.90;;;;;;5057872;28;20067;-92
2023/02/19 02:43:33;;;;;;;22.83;3.90;;;10.50;99.90;;;;;;5057867;28;20025;-93
2023/02/19 02:46:12;;;;;;;17.83;3.33;;;11.10;99.90;;;;;;5058073;28;20074;-93
2023/02/19 02:48:44;;;;;;;26.98;6.22;;;11.20;99.90;;;;;;5059336;28;20021;-93
2023/02/19 02:51:39;;;;;;;16.05;3.47;;;10.10;99.90;;;;;;5063735;28;20076;-92
2023/02/19 02:56:58;;;;;;;16.48;4.18;;;10.20;99.90;;;;;;5057528;28;20048;-93
2023/02/19 02:59:32;;;;;;;15.15;3.67;;;10.20;99.90;;;;;;5057986;28;20032;-94
2023/02/19 03:02:10;;;;;;;21.17;3.85;;;10.90;99.90;;;;;;5057916;28;20029;-93
2023/02/19 03:07:58;;;;;;;13.35;3.92;;;10.20;99.90;;;;;;5057483;28;20035;-93
2023/02/19 03:10:51;;;;;;;13.75;3.60;;;10.60;99.90;;;;;;5057863;28;20029;-94
2023/02/19 03:19:22;;;;;;;14.50;3.85;;;10.20;99.90;;;;;;5057103;28;20040;-94
2023/02/19 03:22:10;;;;;;;16.63;3.70;;;8.60;99.90;;;;;;5056970;28;20071;-93
2023/02/19 03:27:46;;;;;;;19.83;3.45;;;10.20;99.90;;;;;;5067694;28;20132;-93
2023/02/19 03:30:18;;;;;;;16.33;4.22;;;11.10;99.90;;;;;;5057687;28;20078;-94
2023/02/19 03:32:59;;;;;;;19.42;3.80;;;10.50;99.90;;;;;;5056868;28;20064;-96
2023/02/19 03:35:26;;;;;;;;;;;10.10;99.90;;;;;;5057094;28;20036;-94
2023/02/19 03:38:03;;;;;;;16.33;3.60;;;9.50;99.90;;;;;;5056685;28;19919;-94
2023/02/19 03:40:33;;;;;;;18.83;3.45;;;10.00;99.90;;;;;;5057240;28;20021;-94
2023/02/19 03:43:15;;;;;;;19.88;4.38;;;10.80;99.90;;;;;;5040623;28;20030;-91
2023/02/19 03:46:10;;;;;;;24.38;4.65;;;9.90;99.90;;;;;;5044050;28;20026;-94
2023/02/19 03:48:47;;;;;;;12.52;4.53;;;9.90;99.90;;;;;;5036953;28;20025;-92
2023/02/19 03:51:27;;;;;;;19.00;4.03;;;10.80;99.90;;;;;;5036656;28;20049;-91
2023/02/19 03:54:19;;;;;;;17.52;3.78;;;9.90;99.90;;;;;;5036659;28;20033;-92
2023/02/19 03:56:48;;;;;;;16.13;3.35;;;9.90;99.90;;;;;;5036635;28;20467;-92
2023/02/19 03:59:40;;;;;;;12.75;3.53;;;10.60;99.90;;;;;;5036842;28;20021;-93
2023/02/19 04:02:12;;;;;;;17.02;3.50;;;9.90;99.90;;;;;;5036980;28;20412;-95
2023/02/19 04:04:44;;;;;;;29.15;4.72;;;10.20;99.90;;;;;;5036599;28;20017;-92
2023/02/19 04:07:10;;;;;;;24.20;4.50;;;9.90;99.90;;;;;;5036700;28;20076;-92
2023/02/19 04:09:40;;;;;;;24.33;4.55;;;10.70;99.90;;;;;;5036118;28;20017;-92
2023/02/19 04:12:07;;;;;;;22.95;3.45;;;10.60;99.90;;;;;;5036661;28;20037;-92
2023/02/19 04:14:37;;;;;;;23.70;4.93;;;10.70;99.90;;;;;;5036438;28;20432;-93
2023/02/19 04:17:10;;;;;;;14.70;3.45;;;10.70;99.90;;;;;;5036126;28;20465;-94
2023/02/19 04:19:38;;;;;;;19.70;3.95;;;10.20;99.90;;;;;;5036385;28;20080;-92
2023/02/19 04:22:06;;;;;;;22.42;3.65;;;10.50;99.90;;;;;;5036352;28;20029;-92
2023/02/19 04:24:39;;;;;;;22.77;4.43;;;10.60;99.90;;;;;;5036284;28;20013;-93
2023/02/19 04:27:05;;;;;;;27.58;4.15;;;9.80;99.90;;;;;;5036326;28;20025;-94
2023/02/19 04:29:31;;;;;;;18.85;3.22;;;10.40;99.90;;;;;;5035805;28;20083;-93
2023/02/19 04:32:02;;;;;;;20.35;3.42;;;10.70;99.90;;;;;;5035982;28;20065;-93
2023/02/19 04:34:28;;;;;;;11.50;2.65;;;9.80;99.90;;;;;;5035943;28;20018;-93
2023/02/19 04:36:54;;;;;;;14.13;3.88;;;10.60;99.90;;;;;;5035823;28;20088;-94
2023/02/19 04:39:20;;;;;;;14.55;3.75;;;10.70;99.90;;;;;;5037914;28;20025;-93
2023/02/19 04:41:45;;;;;;;11.68;2.95;;;10.60;99.90;;;;;;5037675;28;20030;-92
2023/02/19 04:44:11;;;;;;;13.90;3.20;;;10.70;99.90;;;;;;5036054;28;20025;-93
2023/02/19 04:46:36;;;;;;;20.10;4.97;;;10.30;99.90;;;;;;5035286;28;20026;-93
2023/02/19 04:49:03;;;;;;;16.70;3.92;;;10.50;99.90;;;;;;5053007;28;20014;-91
2023/02/19 04:51:28;;;;;;;18.30;4.55;;;11.30;99.90;;;;;;5043779;28;20107;-93
2023/02/19 04:53:55;;;;;;;19.98;4.18;;;10.00;99.90;;;;;;5035863;28;20021;-93
2023/02/19 04:56:20;;;;;;;12.10;2.85;;;9.70;99.90;;;;;;5035188;28;20426;-91
2023/02/19 04:58:46;;;;;;;14.27;3.63;;;10.60;99.90;;;;;;5035344;28;20021;-93
2023/02/19 05:01:13;;;;;;;21.17;4.15;;;10.50;99.90;;;;;;5035599;28;20022;-93
2023/02/19 05:03:38;;;;;;;20.15;4.63;;;10.70;99.90;;;;;;5035229;28;20025;-93
2023/02/19 05:06:06;;;;;;;17.30;3.03;;;10.40;99.90;;;;;;5035556;28;20070;-94
2023/02/19 05:08:32;;;;;;;17.67;3.25;;;9.70;99.90;;;;;;5035682;28;20025;-94
2023/02/19 05:11:02;;;;;;;15.23;3.63;;;9.80;99.90;;;;;;5051984;28;20033;-93
2023/02/19 05:13:29;;;;;;;13.52;2.75;;;9.70;99.90;;;;;;5039859;28;20458;-93
2023/02/19 05:16:00;;;;;;;15.27;3.75;;;10.40;99.90;;;;;;5035223;28;20064;-91
2023/02/19 05:18:26;;;;;;;21.75;3.40;;;9.70;99.90;;;;;;5035415;28;20029;-94
2023/02/19 05:20:51;;;;;;;24.08;4.15;;;9.70;99.90;;;;;;5035222;28;20072;-91
2023/02/19 05:23:25;;;;;;;23.55;3.50;;;9.70;99.90;;;;;;5035242;28;20025;-91
2023/02/19 05:25:51;;;;;;;16.13;3.35;;;10.60;99.90;;;;;;5035362;28;20017;-92
2023/02/19 05:28:17;;;;;;;16.77;3.95;;;10.90;99.90;;;;;;5035299;28;20138;-92
2023/02/19 05:30:50;;;;;;;18.67;3.83;;;9.60;99.90;;;;;;5035267;28;20048;-92
2023/02/19 05:33:18;;;;;;;10.48;3.90;;;10.60;99.90;;;;;;5046207;28;20040;-94
2023/02/19 05:35:46;;;;;;;12.63;4.32;;;9.70;99.90;;;;;;5036233;28;20042;-93
2023/02/19 05:38:12;;;;;;;12.77;4.28;;;10.20;99.90;;;;;;5035344;28;20034;-93
2023/02/19 05:40:39;;;;;;;13.13;3.67;;;10.60;99.90;;;;;;5035147;28;20465;-92
2023/02/19 05:43:05;;;;;;;15.57;3.90;;;9.70;99.90;;;;;;5035600;28;20041;-91
2023/02/19 05:45:31;;;;;;;14.75;3.92;;;9.50;99.90;;;;;;5035609;28;20017;-92
2023/02/19 05:47:57;;;;;;;14.57;3.63;;;10.40;99.90;;;;;;5064163;28;20052;-91
2023/02/19 05:50:22;;;;;;;18.88;3.88;;;10.70;99.90;;;;;;5074915;28;20471;-94
2023/02/19 05:52:48;;;;;;;19.77;3.88;;;10.40;99.90;;;;;;5075030;28;20456;-93
2023/02/19 05:55:13;;;;;;;16.77;4.28;;;10.40;99.90;;;;;;5075482;28;20032;-94
2023/02/19 05:57:45;;;;;;;22.13;4.30;;;9.60;99.90;;;;;;5074923;28;20469;-94
2023/02/19 06:00:13;;;;;;;11.23;4.43;;;10.40;99.90;;;;;;5074737;28;20023;-94
2023/02/19 06:02:39;;;;;;;12.35;4.05;;;9.60;99.90;;;;;;5075178;28;20025;-95
2023/02/19 06:05:06;;;;;;;19.92;4.28;;;10.30;99.90;;;;;;5074676;28;20081;-92
2023/02/19 06:07:41;;;;;;;18.10;4.40;;;9.60;99.90;;;;;;5074698;28;20059;-93
2023/02/19 06:10:09;;;;;;;17.88;5.22;;;10.20;99.90;;;;;;5092582;28;20020;-92
2023/02/19 06:12:46;;;;;;;12.77;4.32;;;9.60;99.90;;;;;;5097283;28;20021;-94
2023/02/19 06:15:12;;;;;;;12.55;4.72;;;10.50;99.90;;;;;;5087122;28;20017;-94
2023/02/19 06:17:37;;;;;;;11.43;4.65;;;10.40;99.90;;;;;;5078515;28;20040;-92
2023/02/19 06:20:03;;;;;;;14.93;4.10;;;10.30;99.90;;;;;;5079302;28;20021;-92
2023/02/19 06:22:29;;;;;;;11.95;4.72;;;9.50;99.90;;;;;;5078884;28;20032;-92
2023/02/19 06:24:55;;;;;;;10.90;4.38;;;10.90;99.90;;;;;;5061016;28;20018;-91
2023/02/19 06:27:20;;;;;;;13.13;4.93;;;10.00;99.90;;;;;;5067555;28;20021;-93
2023/02/19 06:29:46;;;;;;;16.95;4.70;;;10.40;99.90;;;;;;5059715;28;20375;-93
2023/02/19 06:32:11;;;;;;;12.85;5.05;;;10.30;99.90;;;;;;5065332;28;20457;-93
2023/02/19 06:34:37;;;;;;;11.25;5.20;;;10.20;99.90;;;;;;5057131;28;20044;-93
2023/02/19 06:37:02;;;;;;;13.20;5.15;;;10.00;99.90;;;;;;5057714;28;20045;-93
2023/02/19 06:39:28;;;;;;;9.68;5.05;;;10.10;99.90;;;;;;5058238;28;20511;-92
2023/02/19 06:41:55;;;;;;;14.32;5.68;;;10.10;99.90;;;;;;5057610;28;20411;-93
2023/02/19 06:44:21;;;;;;;16.45;6.40;;;9.20;99.90;;;;;;5067596;22;20045;-93
2023/02/19 06:46:46;;;;;;;16.77;5.72;;;10.20;99.90;;;;;;5077481;28;20526;-92
2023/02/19 06:49:21;;;;;;;14.50;5.90;;;10.10;99.90;;;;;;5077700;28;20456;-93
2023/02/19 06:51:49;;;;;;;14.43;5.60;;;10.10;99.90;;;;;;5074669;28;20487;-93
2023/02/19 06:54:15;;;;;;;14.10;4.90;;;10.00;99.90;;;;;;5064180;28;20029;-92
2023/02/19 06:56:41;;;;;;;25.88;5.57;;;10.10;99.90;;;;;;5057773;28;20021;-93
2023/02/19 06:59:10;;;;;;;17.50;6.03;;;10.10;99.90;;;;;;5058324;28;20029;-92
2023/02/19 07:01:37;;;;;;;18.75;6.10;;;9.80;99.90;;;;;;5057484;28;20142;-93
2023/02/19 07:04:03;;;;;;;12.75;4.60;;;10.00;99.90;;;;;;5066388;28;20036;-93
2023/02/19 07:06:29;;;;;;;16.50;5.60;;;9.30;99.90;;;;;;5078341;28;20041;-94
2023/02/19 07:08:57;;;;;;;9.57;4.80;;;9.60;99.90;;;;;;5077967;28;20029;-93
2023/02/19 07:11:23;;;;;;;15.88;5.30;;;9.40;99.90;;;;;;5077855;28;20166;-92
2023/02/19 07:14:16;;;;;;;21.20;6.47;;;10.10;99.90;;;;;;5077116;28;20028;-95
2023/02/19 07:16:42;;;;;;;16.00;5.15;;;9.30;99.90;;;;;;5077589;28;20053;-94
2023/02/19 07:19:10;;;;;;;15.65;5.50;;;10.20;99.90;;;;;;5086260;28;20033;-92
2023/02/19 07:21:36;;;;;;;12.57;5.45;;;8.90;99.90;;;;;;5087398;28;20028;-94
2023/02/19 07:24:04;;;;;;;15.10;6.28;;;9.50;99.90;;;;;;5079355;28;20020;-94
2023/02/19 07:26:35;;;;;;;16.40;5.38;;;9.30;99.90;;;;;;5077577;28;20021;-94
2023/02/19 07:29:01;;;;;;;18.95;6.07;;;9.40;99.90;;;;;;5077549;28;20020;-92
2023/02/19 07:31:27;;;;;;;18.27;5.63;;;10.10;99.90;;;;;;5077833;28;20067;-93
2023/02/19 07:33:54;;;;;;;13.43;5.25;;;9.20;99.90;;;;;;5076930;28;20033;-95
2023/02/19 07:36:21;;;;;;;18.63;6.18;;;10.00;99.90;;;;;;5095546;28;20121;-95
2023/02/19 07:39:05;;;;;;;12.95;6.05;;;9.10;99.90;;;;;;5088429;28;20439;-93
2023/02/19 07:41:31;;;;;;;26.13;6.18;;;9.50;99.90;;;;;;5077899;28;20031;-93
2023/02/19 07:43:57;;;;;;;17.10;5.65;;;9.10;99.90;;;;;;5058036;28;20017;-92
2023/02/19 07:46:23;;;;;;;13.00;5.50;;;9.70;99.90;;;;;;5058778;28;20032;-94
2023/02/19 07:48:49;;;;;;;17.55;5.47;;;9.70;99.90;;;;;;5073910;28;20037;-94
2023/02/19 07:51:21;;;;;;;24.73;6.05;;;9.20;99.90;;;;;;5071820;28;20036;-94
2023/02/19 07:53:51;;;;;;;13.27;5.35;;;9.10;99.90;;;;;;5062828;28;20023;-94
2023/02/19 07:56:19;;;;;;;16.57;5.87;;;10.00;99.90;;;;;;5079794;28;20028;-94
2023/02/19 07:58:48;;;;;;;10.65;5.68;;;9.80;99.90;;;;;;5078153;28;20040;-94
2023/02/19 08:01:15;;;;;;;15.38;5.75;;;9.00;99.90;;;;;;5076752;28;20021;-90
2023/02/19 08:03:41;;;;;;;15.27;5.43;;;8.90;99.90;;;;;;5076749;28;20017;-94
2023/02/19 08:06:09;;;;;;;13.73;6.13;;;9.20;99.90;;;;;;5077939;28;20024;-93
2023/02/19 08:08:35;;;;;;;13.35;6.63;;;9.00;99.90;;;;;;5077141;28;20024;-92
2023/02/19 08:13:49;;;;;;;17.27;7.00;;;8.90;99.90;;;;;;5073806;28;20035;-93
2023/02/19 08:16:18;;;;;;;19.50;7.35;;;9.80;99.90;;;;;;5078372;28;20021;-94
2023/02/19 08:18:46;;;;;;;14.15;6.82;;;9.50;99.90;;;;;;5072383;28;20086;-92
2023/02/19 08:21:17;;;;;;;19.70;7.88;;;8.90;99.90;;;;;;5071879;28;20021;-91
2023/02/19 08:23:45;;;;;;;17.13;7.43;;;8.70;99.90;;;;;;5065592;28;20484;-93
2023/02/19 08:26:10;;;;;;;17.55;7.05;;;9.30;99.90;;;;;;5071154;28;20024;-95
2023/02/19 08:28:36;;;;;;;17.90;6.03;;;8.40;99.90;;;;;;5078773;28;20025;-92
2023/02/19 08:31:05;;;;;;;14.00;6.65;;;9.90;99.90;;;;;;5074934;28;20032;-94
2023/02/19 08:33:31;;;;;;;17.48;6.43;;;9.00;99.90;;;;;;5076304;28;20028;-93
2023/02/19 08:36:03;;;;;;;25.27;6.30;;;9.20;99.90;;;;;;5070737;28;20448;-94
2023/02/19 08:38:29;;;;;;;19.45;6.15;;;9.60;99.90;;;;;;5076362;28;20037;-91
2023/02/19 08:40:54;;;;;;;10.57;4.85;;;9.80;99.90;;;;;;5075162;28;20479;-93
2023/02/19 08:43:20;;;;;;;13.80;5.47;;;9.90;99.90;;;;;;5075676;28;20495;-92
2023/02/19 08:45:46;;;;;;;13.55;6.63;;;9.00;99.90;;;;;;5074812;28;20377;-92
2023/02/19 08:48:12;;;;;;;22.00;6.25;;;8.90;99.90;;;;;;5073713;28;20016;-93
2023/02/19 08:50:38;;;;;;;28.17;5.57;;;9.00;99.90;;;;;;5074797;28;20464;-91
2023/02/19 08:53:04;;;;;;;14.50;5.55;;;9.60;99.90;;;;;;5074972;28;20064;-92
2023/02/19 08:55:31;;;;;;;17.92;5.45;;;9.00;99.90;;;;;;5074893;28;20388;-92
2023/02/19 08:57:56;;;;;;;9.25;4.40;;;9.10;99.90;;;;;;5074698;28;20036;-92
2023/02/19 09:00:22;;;;;;;13.27;5.07;;;9.80;99.90;;;;;;5092784;28;20035;-92
2023/02/19 09:02:49;;;;;;;12.60;5.22;;;8.90;99.90;;;;;;5078938;28;20036;-91
2023/02/19 09:05:15;;;;;;;13.13;6.53;;;9.00;99.90;;;;;;5079107;28;20021;-91
2023/02/19 09:07:41;;;;;;;8.13;5.20;;;9.60;99.90;;;;;;5084749;28;20031;-92
2023/02/19 09:10:09;;;;;;;16.55;6.22;;;9.00;99.90;;;;;;5074999;28;20021;-91
2023/02/19 09:12:34;;;;;;;19.95;6.75;;;9.00;99.90;;;;;;5074999;28;20029;-92
2023/02/19 09:15:00;;;;;;;15.20;5.25;;;9.70;99.90;;;;;;5075218;28;20027;-91
2023/02/19 09:17:26;;;;;;;14.10;5.47;;;10.00;99.90;;;;;;5074404;28;20480;-93
2023/02/19 09:19:53;;;;;;;19.38;5.00;;;9.80;99.90;;;;;;5074287;28;20110;-92
2023/02/19 09:22:18;;;;;;;21.88;5.18;;;10.00;99.90;;;;;;5074735;28;20067;-91
2023/02/19 09:24:44;;;;;;;16.92;4.78;;;10.70;99.90;;;;;;5074452;28;20052;-93
2023/02/19 09:27:15;;;;;;;32.65;6.40;;;9.10;99.90;;;;;;5074964;28;20082;-91
2023/02/19 09:29:41;;;;;;;15.63;5.25;;;9.80;99.90;;;;;;5074250;28;20052;-92
2023/02/19 09:32:06;;;;;;;16.40;4.55;;;9.20;99.90;;;;;;5074818;28;20064;-92
2023/02/19 09:34:32;;;;;;;16.33;4.70;;;10.10;99.90;;;;;;5074969;28;20028;-92
2023/02/19 09:37:00;;;;;;;16.02;4.25;;;9.40;99.90;;;;;;5075029;28;20375;-91
2023/02/19 09:39:26;;;;;;;17.80;4.68;;;9.20;99.90;;;;;;5074584;28;20036;-92
2023/02/19 09:41:56;;;;;;;16.92;4.63;;;10.00;99.90;;;;;;5074511;28;20383;-93
2023/02/19 09:44:35;;;;;;;16.52;4.78;;;9.80;99.90;;;;;;5074614;28;20044;-90
2023/02/19 09:47:04;;;;;;;23.92;4.53;;;9.30;99.90;;;;;;5074985;28;20380;-93
2023/02/19 09:49:33;;;;;;;21.27;4.88;;;9.30;99.90;;;;;;5074894;28;20115;-93
2023/02/19 09:52:37;;;;;;;16.45;4.20;;;9.40;99.90;;;;;;5074612;28;20479;-91
2023/02/19 09:55:29;;;;;;;16.48;4.10;;;9.40;99.90;;;;;;5073660;28;20036;-92
2023/02/19 09:57:57;;;;;;;16.42;4.70;;;9.40;99.90;;;;;;5079465;28;20264;-92
2023/02/19 10:00:25;;;;;;;14.20;3.17;;;9.40;99.90;;;;;;5081010;28;20029;-92
2023/02/19 10:03:19;;;;;;;16.65;4.90;;;9.40;99.90;;;;;;5073359;28;20062;-91
2023/02/19 10:05:44;;;;;;;14.57;4.78;;;9.40;99.90;;;;;;5074170;28;20080;-91
2023/02/19 10:08:16;;;;;;;14.65;3.72;;;10.40;99.90;;;;;;5074107;28;20471;-92
2023/02/19 10:10:43;;;;;;;11.82;3.65;;;10.40;99.90;;;;;;5073811;28;20491;-92
2023/02/19 10:13:29;;;;;;;10.68;2.90;;;10.40;99.90;;;;;;5074211;28;20047;-91
2023/02/19 10:16:01;;;;;;;12.98;2.85;;;9.90;99.90;;;;;;5074524;28;20020;-92
2023/02/19 10:18:38;;;;;;;16.65;2.72;;;9.50;99.90;;;;;;5074214;28;20037;-92
2023/02/19 10:21:04;;;;;;;10.20;2.78;;;10.00;99.90;;;;;;5074133;28;20025;-91
2023/02/19 10:23:30;;;;;;;6.63;2.00;;;9.60;99.90;;;;;;5090766;28;20016;-93
2023/02/19 10:25:57;;;;;;;7.00;1.98;;;9.90;99.90;;;;;;5080133;28;20025;-92
2023/02/19 10:28:27;;;;;;;8.45;2.75;;;9.50;99.90;;;;;;5074451;28;20472;-93
2023/02/19 10:30:56;;;;;;;9.45;2.45;;;10.10;99.90;;;;;;5073982;28;20329;-91
2023/02/19 10:33:23;;;;;;;4.95;2.33;;;10.40;99.90;;;;;;5074198;28;20028;-92
2023/02/19 10:36:03;;;;;;;6.75;1.85;;;9.40;99.90;;;;;;5073937;28;20094;-91
2023/02/19 10:38:32;;;;;;;3.85;1.50;;;10.00;99.90;;;;;;5069368;28;20037;-91
2023/02/19 10:41:17;;;;;;;4.63;1.88;;;10.10;99.90;;;;;;5074950;28;20032;-91
2023/02/19 10:43:50;;;;;;;3.45;1.60;;;9.40;99.90;;;;;;5073921;28;20032;-91
2023/02/19 10:46:20;;;;;;;4.72;1.83;;;10.10;99.90;;;;;;5073673;28;20048;-92
2023/02/19 10:48:54;;;;;;;4.78;1.80;;;10.30;99.90;;;;;;5073579;28;20079;-92
2023/02/19 10:51:21;;;;;;;3.58;1.98;;;10.20;99.90;;;;;;5078817;28;20537;-92
2023/02/19 10:53:50;;;;;;;5.60;2.25;;;9.30;99.90;;;;;;5077038;28;20024;-91
2023/02/19 10:56:28;;;;;;;3.33;1.92;;;9.80;99.90;;;;;;5077919;28;20052;-92
2023/02/19 10:58:54;;;;;;;4.32;2.20;;;9.30;99.90;;;;;;5077259;28;20518;-92
2023/02/19 11:01:22;;;;;;;6.13;2.28;;;9.30;99.90;;;;;;5077658;28;20025;-92
2023/02/19 11:03:51;;;;;;;7.47;1.73;;;9.30;99.90;;;;;;5084154;28;20059;-91
2023/02/19 11:06:25;;;;;;;5.03;1.30;;;9.20;99.90;;;;;;5085805;28;20023;-91
2023/02/19 11:08:59;;;;;;;6.88;1.50;;;9.20;99.90;;;;;;5077090;28;20021;-90
2023/02/19 11:11:27;;;;;;;5.68;1.92;;;9.20;99.90;;;;;;5077349;28;20488;-92
2023/02/19 11:13:58;;;;;;;4.32;1.50;;;9.20;99.90;;;;;;5077378;28;20035;-93
2023/02/19 11:16:40;;;;;;;6.15;1.77;;;9.20;99.90;;;;;;5077329;28;20078;-91
2023/02/19 11:19:22;;;;;;;10.75;1.65;;;9.20;99.90;;;;;;5077485;28;20043;-91
2023/02/19 11:21:48;;;;;;;8.63;2.22;;;9.10;99.90;;;;;;5077403;28;20078;-92
2023/02/19 11:24:35;;;;;;;5.10;1.88;;;9.10;99.90;;;;;;5077260;28;20055;-91
2023/02/19 11:27:05;;;;;;;4.60;1.50;;;9.10;99.90;;;;;;5077156;28;20091;-91
2023/02/19 11:29:33;;;;;;;3.67;1.38;;;9.10;99.90;;;;;;5076911;28;20028;-91
2023/02/19 11:32:37;;;;;;;6.30;1.50;;;9.10;99.90;;;;;;5076836;28;20016;-92
2023/02/19 11:35:21;;;;;;;4.95;1.92;;;9.20;99.90;;;;;;4995992;28;20030;-92
2023/02/19 11:37:56;;;;;;;6.97;1.65;;;9.20;99.90;;;;;;4995449;28;20034;-93
2023/02/19 11:40:34;;;;;;;5.57;1.40;;;9.20;99.90;;;;;;5048983;28;20067;-91
2023/02/19 11:43:11;;;;;;;8.80;1.85;;;9.20;99.90;;;;;;5081115;28;20052;-91
2023/02/19 11:46:00;;;;;;;3.45;1.23;;;9.30;99.90;;;;;;5085950;28;20031;-93
2023/02/19 11:48:37;;;;;;;6.20;2.13;;;9.40;99.90;;;;;;5079749;28;20108;-92
2023/02/19 11:51:38;;;;;;;3.75;1.20;;;9.50;99.90;;;;;;5077566;28;20016;-93
2023/02/19 11:54:34;;;;;;;3.95;1.27;;;9.50;99.90;;;;;;4995663;28;20057;-91
2023/02/19 11:57:18;;;;;;;4.32;1.15;;;9.50;99.90;;;;;;5076096;28;20904;-91
2023/02/19 12:00:02;;;;;;;3.92;1.10;;;9.80;99.90;;;;;;5076748;28;20028;-92
2023/02/19 12:02:52;;;;;;;4.22;0.85;;;9.60;99.90;;;;;;5079900;28;20047;-93
2023/02/19 12:05:48;;;;;;;5.18;0.75;;;9.50;99.90;;;;;;5083136;28;20028;-92
2023/02/19 12:08:45;;;;;;;3.63;1.00;;;9.50;99.90;;;;;;5076660;28;20028;-93
2023/02/19 12:11:29;;;;;;;3.47;1.15;;;9.50;99.90;;;;;;5075909;28;20028;-92
2023/02/19 12:14:22;;;;;;;3.75;0.93;;;9.50;99.90;;;;;;5075455;28;20507;-90
2023/02/19 12:17:03;;;;;;;2.78;1.00;;;9.40;99.90;;;;;;5075942;28;20020;-93
2023/02/19 12:19:28;;;;;;;5.18;1.33;;;9.40;99.90;;;;;;5076591;28;20029;-91
2023/02/19 12:22:03;;;;;;;5.82;1.13;;;9.40;99.90;;;;;;5076389;28;20070;-90
2023/02/19 12:24:47;;;;;;;7.45;1.42;;;9.40;99.90;;;;;;5076192;28;20111;-91
2023/02/19 12:27:29;;;;;;;14.68;2.30;;;9.30;99.90;;;;;;5076419;28;20051;-90
2023/02/19 12:30:17;;;;;;;6.75;2.10;;;9.30;99.90;;;;;;5075900;28;20074;-94
2023/02/19 12:32:45;;;;;;;16.67;1.95;;;9.30;99.90;;;;;;5076230;28;20376;-91
2023/02/19 12:35:42;;;;;;;11.32;2.58;;;9.30;99.90;;;;;;5075936;28;20020;-91
2023/02/19 12:38:22;;;;;;;9.82;2.72;;;9.20;99.90;;;;;;5079610;28;20076;-92
2023/02/19 12:41:12;;;;;;;13.23;3.00;;;9.20;99.90;;;;;;5075860;28;20029;-92
2023/02/19 12:43:41;;;;;;;7.10;2.20;;;9.10;99.90;;;;;;5075414;28;20021;-92
2023/02/19 12:46:14;;;;;;;4.38;1.55;;;9.10;99.90;;;;;;5074920;28;20048;-92
2023/02/19 12:48:57;;;;;;;8.43;2.22;;;9.10;99.90;;;;;;5075336;28;20020;-92
2023/02/19 12:51:35;;;;;;;5.80;1.60;;;9.10;99.90;;;;;;5075547;28;20020;-92
2023/02/19 12:54:10;;;;;;;10.38;2.50;;;9.10;99.90;;;;;;5075624;28;20021;-93
2023/02/19 12:56:42;;;;;;;2.95;1.63;;;9.10;99.90;;;;;;5075363;28;20028;-91
2023/02/19 12:59:15;;;;;;;3.60;1.33;;;9.10;99.90;;;;;;5075330;28;20036;-93
2023/02/19 13:01:55;;;;;;;4.50;1.90;;;9.20;99.90;;;;;;5076866;28;20024;-92
2023/02/19 13:04:31;;;;;;;8.02;3.13;;;9.30;99.90;;;;;;5077220;28;20025;-93
2023/02/19 13:07:20;;;;;;;2.45;1.48;;;9.40;99.90;;;;;;5074898;28;20480;-92
2023/02/19 13:09:52;;;;;;;12.48;3.15;;;9.40;99.90;;;;;;5040953;28;20016;-91
2023/02/19 13:12:38;;;;;;;8.18;1.80;;;10.80;99.90;;;;;;5087486;28;20028;-92
2023/02/19 13:15:19;;;;;;;4.30;1.83;;;9.30;99.90;;;;;;5075746;28;20052;-92
2023/02/19 13:17:51;;;;;;;3.50;2.97;;;9.40;99.90;;;;;;5074139;28;20032;-91
2023/02/19 13:20:21;;;;;;;4.65;3.97;;;9.40;99.90;;;;;;5074745;28;20112;-92
2023/02/19 13:26:14;;;;;;;5.07;4.28;;;9.30;99.90;;;;;;5075232;28;20093;-92
2023/02/19 13:28:49;;;;;;;4.57;3.80;;;9.30;99.90;;;;;;5081209;28;20029;-91
2023/02/19 13:31:43;;;;;;;5.22;4.00;;;9.30;99.90;;;;;;5082140;28;20043;-92
2023/02/19 13:34:39;;;;;;;5.50;4.78;;;9.60;99.90;;;;;;5075493;28;20107;-92